Archival Weather

South Haven Area Rgnl

South Haven, Michigan (KLWA)

Report from: Wednesday, December 6, 2023 1:35 PM EST
Current time: Saturday, February 24, 2024 11:07 AM EST

Current weather – Weather history – Daily summaries
Weather forecast

Temperature4.5°C (40.1°F)
Wind chill0.9°C (33.6°F)
Dew point-2.6°C (27.3°F)
Winds 9 kts (4.6 m/s, 10.4 mph) West-Southwest (250°)
Wind gusts 14 kts (7.2 m/s, 16.1 mph)
Visibility10 mi. (16.1 km)
Clouds Scattered clouds 2,900 ft. (884 m)
Ceiling: Overcast 3,600 ft. (1,097 m)
Altimeter30.21 in.Hg (1023 mB)
Relative humidity60 %
Density altitude-1,523 ft. (-464 m)
Remarks Fully automated report
Automated weather observing station with precipitation discriminator
Flight conditions Visual Meteorological Conditions
Raw dataKLWA 061835Z AUTO 25009G14KT 10SM SCT029 OVC036 05/M03 A3021 RMK AO2 T00451026
An error has occurred. This application may no longer respond until reloaded. Reload 🗙